Ice Star — OUJK2 — position and weather

sailwx.info

Track history (hours):
 
Tides and Currents Weather Stations Pressure Air Temp Water Temp Dewpoint Dewpoint Depression Visibility Wind Speed Wind Dir Waves Ship Positions

Ice Star

Last reported at 2016-Jul-28 00:33 UTC. Time now 2016-Jul-28 00:55 UTC.
Position N 34°14' W 120°05'.

Length 367 m; draft 13.2 m.

Type: Ship (hazmat cat A). MMSI: 220596000.

Date/timePositionNaut miles runAvg speedWind from/ knotsBaromVisibWave heightAir tempDewpointWater temp
2016-Jul-28 00:33N 34°14' W 120°05'10 9.7
2016-Jul-27 23:33N 34°16' W 120°17'9 9.3
2016-Jul-27 22:33N 34°19' W 120°28'1613.8
2016-Jul-27 21:23N 34°24' W 120°46'1316.1
2016-Jul-27 20:33N 34°25' W 121°02'1616.3
2016-Jul-27 19:33N 34°25' W 121°22'1616.1
2016-Jul-27 18:33N 34°25' W 121°42'1615.9
2016-Jul-27 17:33N 34°25' W 122°01'1616.0
2016-Jul-27 16:34N 34°26' W 122°20'1616.2
2016-Jul-27 15:33N 34°26' W 122°40'1616.3
2016-Jul-27 14:33N 34°25' W 122°60'1616.1
2016-Jul-27 13:33N 34°25' W 123°19'1816.0
2016-Jul-27 12:26N 34°25' W 123°41'1415.4
2016-Jul-27 11:33N 34°25' W 123°57'1615.5
2016-Jul-27 10:33N 34°25' W 124°16'1616.1
2016-Jul-27 09:33N 34°25' W 124°36'1616.0
2016-Jul-27 08:33N 34°26' W 124°55'1414.4
2016-Jul-27 07:33N 34°27' W 125°13'2119.8
2016-Jul-27 06:31N 34°35' W 125°36'6220.7
2016-Jul-27 03:32N 35°07' W 126°40'2020.8
2016-Jul-27 02:33N 35°18' W 127°02'8320.5
2016-Jul-26 22:30N 36°01' W 128°29'94820.4
2016-Jul-25 00:00N 42°42' W 147°00'49620.7 170 / 181027.0 2.2 16.0 17.0
2016-Jul-24 00:00N 44°42' W 158°06'77621.6 290 / 171032.0 2.2 14.0
2016-Jul-22 12:00N 45°36' W 176°24'26221.8 200 / 231034.0 0.0 11.0
2016-Jul-22 00:00N 45°18' E 177°24'48320.1 200 / 281026.0 0.0 2.0 10.0
2016-Jul-21 00:00N 43°48' E 166°18'61420.5 060 / 131022.0 1.0
2016-Jul-19 18:00N 40°24' E 153°18'25321.1 080 / 101013.0 1.1 20.0
2016-Jul-19 06:00N 38°42' E 148°18'44920.9 190 / 111015.0 24.0
2016-Jul-18 08:33N 34°58' E 140°12'2518.7
2016-Jul-18 07:13N 34°51' E 139°43'1319.1
2016-Jul-18 06:33N 35°04' E 139°42'1313.4
2016-Jul-18 05:33N 35°17' E 139°45'8 7.5
2016-Jul-18 04:32N 35°24' E 139°41'0 0.0
2016-Jul-18 03:29N 35°24' E 139°41'0 0.0
2016-Jul-18 02:30N 35°24' E 139°41'0 0.0
2016-Jul-18 01:33N 35°24' E 139°41'  
Track history (hours):
 
Tides and Currents Weather Stations Pressure Air Temp Water Temp Dewpoint Dewpoint Depression Visibility Wind Speed Wind Dir Waves Ship Positions

Ice Star

Last reported at 2016-Jul-28 00:33 UTC. Time now 2016-Jul-28 00:55 UTC.
Position N 34°14' W 120°05'.

Length 367 m; draft 13.2 m.

Type: Ship (hazmat cat A). MMSI: 220596000.

Date/timePositionNaut miles runAvg speedWind from/ knotsBaromVisibWave heightAir tempDewpointWater temp
2016-Jul-28 00:33N 34°14' W 120°05'10 9.7
2016-Jul-27 23:33N 34°16' W 120°17'9 9.3
2016-Jul-27 22:33N 34°19' W 120°28'1613.8
2016-Jul-27 21:23N 34°24' W 120°46'1316.1
2016-Jul-27 20:33N 34°25' W 121°02'1616.3
2016-Jul-27 19:33N 34°25' W 121°22'1616.1
2016-Jul-27 18:33N 34°25' W 121°42'1615.9
2016-Jul-27 17:33N 34°25' W 122°01'1616.0
2016-Jul-27 16:34N 34°26' W 122°20'1616.2
2016-Jul-27 15:33N 34°26' W 122°40'1616.3
2016-Jul-27 14:33N 34°25' W 122°60'1616.1
2016-Jul-27 13:33N 34°25' W 123°19'1816.0
2016-Jul-27 12:26N 34°25' W 123°41'1415.4
2016-Jul-27 11:33N 34°25' W 123°57'1615.5
2016-Jul-27 10:33N 34°25' W 124°16'1616.1
2016-Jul-27 09:33N 34°25' W 124°36'1616.0
2016-Jul-27 08:33N 34°26' W 124°55'1414.4
2016-Jul-27 07:33N 34°27' W 125°13'2119.8
2016-Jul-27 06:31N 34°35' W 125°36'6220.7
2016-Jul-27 03:32N 35°07' W 126°40'2020.8
2016-Jul-27 02:33N 35°18' W 127°02'8320.5
2016-Jul-26 22:30N 36°01' W 128°29'94820.4
2016-Jul-25 00:00N 42°42' W 147°00'49620.7 170 / 181027.0 2.2 16.0 17.0
2016-Jul-24 00:00N 44°42' W 158°06'77621.6 290 / 171032.0 2.2 14.0
2016-Jul-22 12:00N 45°36' W 176°24'26221.8 200 / 231034.0 0.0 11.0
2016-Jul-22 00:00N 45°18' E 177°24'48320.1 200 / 281026.0 0.0 2.0 10.0
2016-Jul-21 00:00N 43°48' E 166°18'61420.5 060 / 131022.0 1.0
2016-Jul-19 18:00N 40°24' E 153°18'25321.1 080 / 101013.0 1.1 20.0
2016-Jul-19 06:00N 38°42' E 148°18'44920.9 190 / 111015.0 24.0
2016-Jul-18 08:33N 34°58' E 140°12'2518.7
2016-Jul-18 07:13N 34°51' E 139°43'1319.1
2016-Jul-18 06:33N 35°04' E 139°42'1313.4
2016-Jul-18 05:33N 35°17' E 139°45'8 7.5
2016-Jul-18 04:32N 35°24' E 139°41'0 0.0
2016-Jul-18 03:29N 35°24' E 139°41'0 0.0
2016-Jul-18 02:30N 35°24' E 139°41'0 0.0
2016-Jul-18 01:33N 35°24' E 139°41'  

Dump ship's entire track history